sensor_id;sensor_type;location;lat;lon;timestamp;P1;durP1;ratioP1;P2;durP2;ratioP2
76610;SDS011;65503;48.534;9.062;2023-06-22T00:01:19;10.75;;;5.97;;
76610;SDS011;65503;48.534;9.062;2023-06-22T00:03:46;11.73;;;5.93;;
76610;SDS011;65503;48.534;9.062;2023-06-22T00:06:13;11.90;;;6.78;;
76610;SDS011;65503;48.534;9.062;2023-06-22T00:08:40;9.13;;;5.70;;
76610;SDS011;65503;48.534;9.062;2023-06-22T00:11:06;9.40;;;5.30;;
76610;SDS011;65503;48.534;9.062;2023-06-22T00:13:33;9.20;;;5.72;;
76610;SDS011;65503;48.534;9.062;2023-06-22T00:16:00;9.65;;;5.88;;
76610;SDS011;65503;48.534;9.062;2023-06-22T00:18:26;11.40;;;5.70;;
76610;SDS011;65503;48.534;9.062;2023-06-22T00:20:55;11.65;;;6.38;;
76610;SDS011;65503;48.534;9.062;2023-06-22T00:23:23;10.43;;;5.97;;
76610;SDS011;65503;48.534;9.062;2023-06-22T00:25:51;9.73;;;5.93;;
76610;SDS011;65503;48.534;9.062;2023-06-22T00:28:17;9.10;;;5.57;;
76610;SDS011;65503;48.534;9.062;2023-06-22T00:30:44;14.02;;;6.80;;
76610;SDS011;65503;48.534;9.062;2023-06-22T00:33:12;12.23;;;6.78;;
76610;SDS011;65503;48.534;9.062;2023-06-22T00:35:38;8.93;;;5.97;;
76610;SDS011;65503;48.534;9.062;2023-06-22T00:38:07;13.05;;;6.68;;
76610;SDS011;65503;48.534;9.062;2023-06-22T00:40:34;10.95;;;6.68;;
76610;SDS011;65503;48.534;9.062;2023-06-22T00:43:01;10.15;;;6.45;;
76610;SDS011;65503;48.534;9.062;2023-06-22T00:45:27;11.32;;;6.55;;
76610;SDS011;65503;48.534;9.062;2023-06-22T00:47:57;14.68;;;6.93;;
76610;SDS011;65503;48.534;9.062;2023-06-22T00:50:26;10.90;;;6.05;;
76610;SDS011;65503;48.534;9.062;2023-06-22T00:52:55;13.32;;;6.93;;
76610;SDS011;65503;48.534;9.062;2023-06-22T00:55:23;15.05;;;7.15;;
76610;SDS011;65503;48.534;9.062;2023-06-22T00:57:50;13.02;;;7.63;;
76610;SDS011;65503;48.534;9.062;2023-06-22T01:00:17;10.90;;;7.03;;
76610;SDS011;65503;48.534;9.062;2023-06-22T01:02:46;14.13;;;6.63;;
76610;SDS011;65503;48.534;9.062;2023-06-22T01:05:13;14.35;;;7.47;;
76610;SDS011;65503;48.534;9.062;2023-06-22T01:08:04;12.13;;;6.70;;
76610;SDS011;65503;48.534;9.062;2023-06-22T01:16:34;12.02;;;6.78;;
76610;SDS011;65503;48.534;9.062;2023-06-22T01:19:06;11.32;;;6.30;;
76610;SDS011;65503;48.534;9.062;2023-06-22T01:21:45;12.15;;;6.90;;
76610;SDS011;65503;48.534;9.062;2023-06-22T01:24:18;12.40;;;6.80;;
76610;SDS011;65503;48.534;9.062;2023-06-22T01:27:00;10.07;;;6.03;;
76610;SDS011;65503;48.534;9.062;2023-06-22T01:29:41;10.45;;;6.53;;
76610;SDS011;65503;48.534;9.062;2023-06-22T01:32:09;10.18;;;6.70;;
76610;SDS011;65503;48.534;9.062;2023-06-22T01:34:37;11.40;;;6.57;;
76610;SDS011;65503;48.534;9.062;2023-06-22T01:37:06;16.33;;;7.22;;
76610;SDS011;65503;48.534;9.062;2023-06-22T01:39:33;8.77;;;6.00;;
76610;SDS011;65503;48.534;9.062;2023-06-22T01:42:01;9.60;;;6.32;;
76610;SDS011;65503;48.534;9.062;2023-06-22T01:44:29;11.43;;;6.72;;
76610;SDS011;65503;48.534;9.062;2023-06-22T01:46:56;11.68;;;7.55;;
76610;SDS011;65503;48.534;9.062;2023-06-22T01:49:23;12.43;;;8.45;;
76610;SDS011;65503;48.534;9.062;2023-06-22T01:51:50;13.50;;;7.53;;
76610;SDS011;65503;48.534;9.062;2023-06-22T01:54:17;11.65;;;7.55;;
76610;SDS011;65503;48.534;9.062;2023-06-22T01:56:44;10.45;;;7.20;;
76610;SDS011;65503;48.534;9.062;2023-06-22T02:02:08;11.82;;;7.45;;
76610;SDS011;65503;48.534;9.062;2023-06-22T02:04:52;13.15;;;8.43;;
76610;SDS011;65503;48.534;9.062;2023-06-22T02:07:23;12.88;;;7.72;;
76610;SDS011;65503;48.534;9.062;2023-06-22T02:09:59;14.73;;;8.52;;
76610;SDS011;65503;48.534;9.062;2023-06-22T02:12:28;11.73;;;8.00;;
76610;SDS011;65503;48.534;9.062;2023-06-22T02:14:56;13.05;;;8.13;;
76610;SDS011;65503;48.534;9.062;2023-06-22T02:17:24;13.43;;;7.53;;
76610;SDS011;65503;48.534;9.062;2023-06-22T02:19:52;11.98;;;7.18;;
76610;SDS011;65503;48.534;9.062;2023-06-22T02:22:19;12.60;;;7.47;;
76610;SDS011;65503;48.534;9.062;2023-06-22T02:24:45;11.52;;;7.65;;
76610;SDS011;65503;48.534;9.062;2023-06-22T02:27:12;11.50;;;8.05;;
76610;SDS011;65503;48.534;9.062;2023-06-22T02:29:38;12.50;;;7.75;;
76610;SDS011;65503;48.534;9.062;2023-06-22T02:32:05;12.82;;;7.65;;
76610;SDS011;65503;48.534;9.062;2023-06-22T02:34:32;15.85;;;8.52;;
76610;SDS011;65503;48.534;9.062;2023-06-22T02:37:00;16.55;;;8.80;;
76610;SDS011;65503;48.534;9.062;2023-06-22T02:39:28;12.45;;;7.70;;
76610;SDS011;65503;48.534;9.062;2023-06-22T02:41:55;11.50;;;7.78;;
76610;SDS011;65503;48.534;9.062;2023-06-22T02:44:21;12.35;;;7.60;;
76610;SDS011;65503;48.534;9.062;2023-06-22T02:46:48;12.45;;;7.85;;
76610;SDS011;65503;48.534;9.062;2023-06-22T02:49:15;14.20;;;8.95;;
76610;SDS011;65503;48.534;9.062;2023-06-22T02:51:47;13.05;;;8.23;;
76610;SDS011;65503;48.534;9.062;2023-06-22T02:54:14;14.05;;;8.68;;
76610;SDS011;65503;48.534;9.062;2023-06-22T02:56:41;15.50;;;8.23;;
76610;SDS011;65503;48.534;9.062;2023-06-22T02:59:10;14.25;;;9.57;;
76610;SDS011;65503;48.534;9.062;2023-06-22T03:01:37;16.52;;;7.75;;
76610;SDS011;65503;48.534;9.062;2023-06-22T03:04:06;14.23;;;8.45;;
76610;SDS011;65503;48.534;9.062;2023-06-22T03:06:34;14.35;;;7.65;;
76610;SDS011;65503;48.534;9.062;2023-06-22T03:09:02;11.68;;;7.72;;
76610;SDS011;65503;48.534;9.062;2023-06-22T03:11:31;13.30;;;7.15;;
76610;SDS011;65503;48.534;9.062;2023-06-22T03:13:59;14.02;;;8.63;;
76610;SDS011;65503;48.534;9.062;2023-06-22T03:16:28;12.90;;;6.93;;
76610;SDS011;65503;48.534;9.062;2023-06-22T03:18:56;13.40;;;7.40;;
76610;SDS011;65503;48.534;9.062;2023-06-22T03:21:23;12.00;;;7.60;;
76610;SDS011;65503;48.534;9.062;2023-06-22T03:23:49;15.02;;;7.28;;
76610;SDS011;65503;48.534;9.062;2023-06-22T03:26:16;11.65;;;6.93;;
76610;SDS011;65503;48.534;9.062;2023-06-22T03:28:44;12.73;;;7.40;;
76610;SDS011;65503;48.534;9.062;2023-06-22T03:31:10;11.93;;;7.05;;
76610;SDS011;65503;48.534;9.062;2023-06-22T03:33:37;10.57;;;7.15;;
76610;SDS011;65503;48.534;9.062;2023-06-22T03:36:03;10.27;;;6.53;;
76610;SDS011;65503;48.534;9.062;2023-06-22T03:38:30;14.02;;;7.28;;
76610;SDS011;65503;48.534;9.062;2023-06-22T03:40:56;14.75;;;7.68;;
76610;SDS011;65503;48.534;9.062;2023-06-22T03:43:23;11.75;;;7.40;;
76610;SDS011;65503;48.534;9.062;2023-06-22T03:45:50;10.80;;;6.88;;
76610;SDS011;65503;48.534;9.062;2023-06-22T03:48:17;13.85;;;7.07;;
76610;SDS011;65503;48.534;9.062;2023-06-22T03:50:43;11.45;;;6.35;;
76610;SDS011;65503;48.534;9.062;2023-06-22T03:53:10;10.48;;;6.90;;
76610;SDS011;65503;48.534;9.062;2023-06-22T03:55:40;10.13;;;6.57;;
76610;SDS011;65503;48.534;9.062;2023-06-22T03:58:14;12.60;;;6.80;;
76610;SDS011;65503;48.534;9.062;2023-06-22T04:00:40;10.65;;;6.43;;
76610;SDS011;65503;48.534;9.062;2023-06-22T04:03:07;13.20;;;7.40;;
76610;SDS011;65503;48.534;9.062;2023-06-22T04:05:34;12.65;;;6.80;;
76610;SDS011;65503;48.534;9.062;2023-06-22T04:08:01;10.90;;;6.22;;
76610;SDS011;65503;48.534;9.062;2023-06-22T04:10:28;10.73;;;6.38;;
76610;SDS011;65503;48.534;9.062;2023-06-22T04:15:22;10.45;;;6.28;;
76610;SDS011;65503;48.534;9.062;2023-06-22T04:17:49;15.35;;;6.70;;
76610;SDS011;65503;48.534;9.062;2023-06-22T04:20:16;14.68;;;6.78;;
76610;SDS011;65503;48.534;9.062;2023-06-22T04:22:42;13.75;;;6.90;;
76610;SDS011;65503;48.534;9.062;2023-06-22T04:25:09;10.43;;;5.95;;
76610;SDS011;65503;48.534;9.062;2023-06-22T04:27:35;10.05;;;6.20;;
76610;SDS011;65503;48.534;9.062;2023-06-22T04:30:07;11.27;;;6.68;;
76610;SDS011;65503;48.534;9.062;2023-06-22T04:32:34;11.48;;;6.05;;
76610;SDS011;65503;48.534;9.062;2023-06-22T04:35:04;10.85;;;6.40;;
76610;SDS011;65503;48.534;9.062;2023-06-22T04:37:33;11.10;;;6.00;;
76610;SDS011;65503;48.534;9.062;2023-06-22T04:40:00;8.32;;;5.80;;
76610;SDS011;65503;48.534;9.062;2023-06-22T04:42:26;8.63;;;5.68;;
76610;SDS011;65503;48.534;9.062;2023-06-22T04:44:53;12.02;;;6.03;;
76610;SDS011;65503;48.534;9.062;2023-06-22T04:47:20;10.45;;;5.43;;
76610;SDS011;65503;48.534;9.062;2023-06-22T04:49:46;15.93;;;6.05;;
76610;SDS011;65503;48.534;9.062;2023-06-22T04:52:13;11.65;;;5.93;;
76610;SDS011;65503;48.534;9.062;2023-06-22T04:54:46;10.38;;;6.13;;
76610;SDS011;65503;48.534;9.062;2023-06-22T04:57:21;8.55;;;5.43;;
76610;SDS011;65503;48.534;9.062;2023-06-22T04:59:59;10.77;;;6.20;;
76610;SDS011;65503;48.534;9.062;2023-06-22T05:02:41;13.27;;;6.13;;
76610;SDS011;65503;48.534;9.062;2023-06-22T05:05:08;8.38;;;5.30;;
76610;SDS011;65503;48.534;9.062;2023-06-22T05:07:35;8.25;;;5.00;;
76610;SDS011;65503;48.534;9.062;2023-06-22T05:10:05;12.23;;;5.90;;
76610;SDS011;65503;48.534;9.062;2023-06-22T05:12:31;8.70;;;4.93;;
76610;SDS011;65503;48.534;9.062;2023-06-22T05:14:58;8.15;;;4.97;;
76610;SDS011;65503;48.534;9.062;2023-06-22T05:19:51;10.80;;;4.30;;
76610;SDS011;65503;48.534;9.062;2023-06-22T05:22:18;9.50;;;4.68;;
76610;SDS011;65503;48.534;9.062;2023-06-22T05:27:12;8.23;;;4.50;;
76610;SDS011;65503;48.534;9.062;2023-06-22T05:29:38;10.93;;;4.97;;
76610;SDS011;65503;48.534;9.062;2023-06-22T05:32:05;8.32;;;4.32;;
76610;SDS011;65503;48.534;9.062;2023-06-22T05:34:32;7.88;;;4.63;;
76610;SDS011;65503;48.534;9.062;2023-06-22T05:36:59;8.23;;;4.57;;
76610;SDS011;65503;48.534;9.062;2023-06-22T05:39:26;9.43;;;4.35;;
76610;SDS011;65503;48.534;9.062;2023-06-22T05:41:53;10.63;;;5.38;;
76610;SDS011;65503;48.534;9.062;2023-06-22T05:44:20;12.82;;;5.45;;
76610;SDS011;65503;48.534;9.062;2023-06-22T05:46:47;12.32;;;6.10;;
76610;SDS011;65503;48.534;9.062;2023-06-22T05:49:15;8.48;;;5.45;;
76610;SDS011;65503;48.534;9.062;2023-06-22T05:51:42;16.15;;;5.88;;
76610;SDS011;65503;48.534;9.062;2023-06-22T05:54:09;10.38;;;5.10;;
76610;SDS011;65503;48.534;9.062;2023-06-22T05:56:44;9.40;;;5.43;;
76610;SDS011;65503;48.534;9.062;2023-06-22T05:59:11;9.90;;;5.35;;
76610;SDS011;65503;48.534;9.062;2023-06-22T06:01:38;11.27;;;5.47;;
76610;SDS011;65503;48.534;9.062;2023-06-22T06:04:06;9.95;;;5.95;;
76610;SDS011;65503;48.534;9.062;2023-06-22T06:06:35;8.50;;;5.75;;
76610;SDS011;65503;48.534;9.062;2023-06-22T06:09:04;13.50;;;6.10;;
76610;SDS011;65503;48.534;9.062;2023-06-22T06:11:31;11.13;;;5.82;;
76610;SDS011;65503;48.534;9.062;2023-06-22T06:13:57;8.40;;;5.53;;
76610;SDS011;65503;48.534;9.062;2023-06-22T06:16:24;10.48;;;5.18;;
76610;SDS011;65503;48.534;9.062;2023-06-22T06:18:51;9.88;;;5.60;;
76610;SDS011;65503;48.534;9.062;2023-06-22T06:21:19;7.47;;;4.55;;
76610;SDS011;65503;48.534;9.062;2023-06-22T06:23:46;7.85;;;4.43;;
76610;SDS011;65503;48.534;9.062;2023-06-22T06:26:13;6.47;;;3.90;;
76610;SDS011;65503;48.534;9.062;2023-06-22T06:28:43;9.18;;;4.28;;
76610;SDS011;65503;48.534;9.062;2023-06-22T06:31:09;9.50;;;4.13;;
76610;SDS011;65503;48.534;9.062;2023-06-22T06:33:38;7.45;;;4.82;;
76610;SDS011;65503;48.534;9.062;2023-06-22T06:36:04;9.60;;;4.22;;
76610;SDS011;65503;48.534;9.062;2023-06-22T06:38:31;10.27;;;4.63;;
76610;SDS011;65503;48.534;9.062;2023-06-22T06:40:58;11.80;;;5.60;;
76610;SDS011;65503;48.534;9.062;2023-06-22T06:43:25;10.13;;;4.57;;
76610;SDS011;65503;48.534;9.062;2023-06-22T06:45:51;8.52;;;4.38;;
76610;SDS011;65503;48.534;9.062;2023-06-22T06:48:18;8.15;;;4.20;;
76610;SDS011;65503;48.534;9.062;2023-06-22T06:50:44;9.65;;;4.32;;
76610;SDS011;65503;48.534;9.062;2023-06-22T06:53:11;8.20;;;3.88;;
76610;SDS011;65503;48.534;9.062;2023-06-22T06:55:37;8.25;;;4.40;;
76610;SDS011;65503;48.534;9.062;2023-06-22T06:58:04;8.85;;;4.00;;
76610;SDS011;65503;48.534;9.062;2023-06-22T07:00:33;6.90;;;4.07;;
76610;SDS011;65503;48.534;9.062;2023-06-22T07:03:02;10.45;;;4.03;;
76610;SDS011;65503;48.534;9.062;2023-06-22T07:05:28;10.40;;;4.65;;
76610;SDS011;65503;48.534;9.062;2023-06-22T07:07:55;8.27;;;3.90;;
76610;SDS011;65503;48.534;9.062;2023-06-22T07:10:22;7.50;;;4.10;;
76610;SDS011;65503;48.534;9.062;2023-06-22T07:12:48;7.55;;;4.03;;
76610;SDS011;65503;48.534;9.062;2023-06-22T07:15:15;13.02;;;4.47;;
76610;SDS011;65503;48.534;9.062;2023-06-22T07:17:41;7.93;;;3.95;;
76610;SDS011;65503;48.534;9.062;2023-06-22T07:20:08;7.85;;;3.92;;
76610;SDS011;65503;48.534;9.062;2023-06-22T07:22:39;10.45;;;3.88;;
76610;SDS011;65503;48.534;9.062;2023-06-22T07:25:07;9.45;;;3.65;;
76610;SDS011;65503;48.534;9.062;2023-06-22T07:27:57;7.57;;;4.28;;
76610;SDS011;65503;48.534;9.062;2023-06-22T07:30:24;8.05;;;3.45;;
76610;SDS011;65503;48.534;9.062;2023-06-22T07:32:51;10.07;;;3.72;;
76610;SDS011;65503;48.534;9.062;2023-06-22T07:35:18;11.07;;;4.32;;
76610;SDS011;65503;48.534;9.062;2023-06-22T07:37:45;11.15;;;4.22;;
76610;SDS011;65503;48.534;9.062;2023-06-22T07:40:12;9.65;;;4.38;;
76610;SDS011;65503;48.534;9.062;2023-06-22T07:42:39;9.40;;;4.18;;
76610;SDS011;65503;48.534;9.062;2023-06-22T07:45:06;9.05;;;4.20;;
76610;SDS011;65503;48.534;9.062;2023-06-22T07:47:34;12.80;;;4.20;;
76610;SDS011;65503;48.534;9.062;2023-06-22T07:50:04;8.95;;;4.03;;
76610;SDS011;65503;48.534;9.062;2023-06-22T07:52:31;13.05;;;4.22;;
76610;SDS011;65503;48.534;9.062;2023-06-22T07:54:58;9.93;;;4.30;;
76610;SDS011;65503;48.534;9.062;2023-06-22T07:57:25;10.80;;;4.38;;
76610;SDS011;65503;48.534;9.062;2023-06-22T08:00:00;8.32;;;4.40;;
76610;SDS011;65503;48.534;9.062;2023-06-22T08:02:27;9.73;;;4.85;;
76610;SDS011;65503;48.534;9.062;2023-06-22T08:04:54;13.40;;;4.85;;
76610;SDS011;65503;48.534;9.062;2023-06-22T08:07:40;8.98;;;4.30;;
76610;SDS011;65503;48.534;9.062;2023-06-22T08:10:12;8.95;;;4.75;;
76610;SDS011;65503;48.534;9.062;2023-06-22T08:12:39;9.68;;;4.57;;
76610;SDS011;65503;48.534;9.062;2023-06-22T08:15:06;13.43;;;5.10;;
76610;SDS011;65503;48.534;9.062;2023-06-22T08:17:33;8.65;;;4.45;;
76610;SDS011;65503;48.534;9.062;2023-06-22T08:20:01;11.63;;;4.47;;
76610;SDS011;65503;48.534;9.062;2023-06-22T08:22:27;13.05;;;5.20;;
76610;SDS011;65503;48.534;9.062;2023-06-22T08:24:54;11.75;;;5.15;;
76610;SDS011;65503;48.534;9.062;2023-06-22T08:27:20;11.73;;;4.43;;
76610;SDS011;65503;48.534;9.062;2023-06-22T08:29:49;9.82;;;4.85;;
76610;SDS011;65503;48.534;9.062;2023-06-22T08:32:17;11.77;;;5.35;;
76610;SDS011;65503;48.534;9.062;2023-06-22T08:34:44;11.05;;;4.50;;
76610;SDS011;65503;48.534;9.062;2023-06-22T08:37:10;9.50;;;4.40;;
76610;SDS011;65503;48.534;9.062;2023-06-22T08:39:37;11.13;;;4.68;;
76610;SDS011;65503;48.534;9.062;2023-06-22T08:42:05;12.65;;;4.68;;
76610;SDS011;65503;48.534;9.062;2023-06-22T08:44:32;12.75;;;5.32;;
76610;SDS011;65503;48.534;9.062;2023-06-22T08:46:58;11.52;;;4.88;;
76610;SDS011;65503;48.534;9.062;2023-06-22T08:49:25;10.18;;;4.50;;
76610;SDS011;65503;48.534;9.062;2023-06-22T08:51:52;11.95;;;4.70;;
76610;SDS011;65503;48.534;9.062;2023-06-22T08:54:20;8.88;;;4.85;;
76610;SDS011;65503;48.534;9.062;2023-06-22T08:56:46;10.13;;;5.00;;
76610;SDS011;65503;48.534;9.062;2023-06-22T09:01:39;11.00;;;4.97;;
76610;SDS011;65503;48.534;9.062;2023-06-22T09:04:06;9.80;;;4.20;;
76610;SDS011;65503;48.534;9.062;2023-06-22T09:06:36;9.93;;;4.65;;
76610;SDS011;65503;48.534;9.062;2023-06-22T09:09:11;10.27;;;5.00;;
76610;SDS011;65503;48.534;9.062;2023-06-22T09:11:39;10.85;;;4.95;;
76610;SDS011;65503;48.534;9.062;2023-06-22T09:14:05;10.50;;;5.15;;
76610;SDS011;65503;48.534;9.062;2023-06-22T09:16:32;10.38;;;4.75;;
76610;SDS011;65503;48.534;9.062;2023-06-22T09:19:00;13.38;;;4.88;;
76610;SDS011;65503;48.534;9.062;2023-06-22T09:21:26;12.38;;;4.50;;
76610;SDS011;65503;48.534;9.062;2023-06-22T09:23:53;11.77;;;4.88;;
76610;SDS011;65503;48.534;9.062;2023-06-22T09:26:19;14.05;;;4.97;;
76610;SDS011;65503;48.534;9.062;2023-06-22T09:28:47;14.13;;;4.85;;
76610;SDS011;65503;48.534;9.062;2023-06-22T09:31:13;12.70;;;5.00;;
76610;SDS011;65503;48.534;9.062;2023-06-22T09:33:41;8.32;;;4.35;;
76610;SDS011;65503;48.534;9.062;2023-06-22T09:36:08;9.18;;;4.28;;
76610;SDS011;65503;48.534;9.062;2023-06-22T09:38:38;11.43;;;4.80;;
76610;SDS011;65503;48.534;9.062;2023-06-22T09:41:05;10.98;;;5.30;;
76610;SDS011;65503;48.534;9.062;2023-06-22T09:43:32;11.25;;;5.15;;
76610;SDS011;65503;48.534;9.062;2023-06-22T09:46:01;11.88;;;4.43;;
76610;SDS011;65503;48.534;9.062;2023-06-22T09:48:28;12.10;;;4.72;;
76610;SDS011;65503;48.534;9.062;2023-06-22T09:50:58;7.72;;;4.40;;
76610;SDS011;65503;48.534;9.062;2023-06-22T09:53:24;9.73;;;5.70;;
76610;SDS011;65503;48.534;9.062;2023-06-22T09:55:51;9.20;;;4.88;;
76610;SDS011;65503;48.534;9.062;2023-06-22T09:58:17;12.23;;;5.55;;
76610;SDS011;65503;48.534;9.062;2023-06-22T10:00:44;8.20;;;4.32;;
76610;SDS011;65503;48.534;9.062;2023-06-22T10:03:10;9.88;;;5.45;;
76610;SDS011;65503;48.534;9.062;2023-06-22T10:05:37;11.55;;;4.40;;
76610;SDS011;65503;48.534;9.062;2023-06-22T10:08:04;10.98;;;5.25;;
76610;SDS011;65503;48.534;9.062;2023-06-22T10:10:30;11.90;;;5.10;;
76610;SDS011;65503;48.534;9.062;2023-06-22T10:12:57;20.10;;;5.40;;
76610;SDS011;65503;48.534;9.062;2023-06-22T10:15:29;13.02;;;5.18;;
76610;SDS011;65503;48.534;9.062;2023-06-22T10:17:55;10.65;;;4.90;;
76610;SDS011;65503;48.534;9.062;2023-06-22T10:20:22;12.13;;;5.10;;
76610;SDS011;65503;48.534;9.062;2023-06-22T10:22:49;12.70;;;4.88;;
76610;SDS011;65503;48.534;9.062;2023-06-22T10:25:15;10.68;;;4.55;;
76610;SDS011;65503;48.534;9.062;2023-06-22T10:27:42;12.63;;;5.03;;
76610;SDS011;65503;48.534;9.062;2023-06-22T10:30:09;16.27;;;4.57;;
76610;SDS011;65503;48.534;9.062;2023-06-22T10:32:38;12.35;;;5.03;;
76610;SDS011;65503;48.534;9.062;2023-06-22T10:35:06;11.85;;;4.88;;
76610;SDS011;65503;48.534;9.062;2023-06-22T10:37:33;11.18;;;4.43;;
76610;SDS011;65503;48.534;9.062;2023-06-22T10:39:59;16.30;;;5.57;;
76610;SDS011;65503;48.534;9.062;2023-06-22T10:42:26;12.50;;;5.43;;
76610;SDS011;65503;48.534;9.062;2023-06-22T10:44:54;8.55;;;4.40;;
76610;SDS011;65503;48.534;9.062;2023-06-22T10:49:47;11.45;;;5.60;;
76610;SDS011;65503;48.534;9.062;2023-06-22T10:52:14;14.00;;;5.10;;
76610;SDS011;65503;48.534;9.062;2023-06-22T10:54:41;9.82;;;5.20;;
76610;SDS011;65503;48.534;9.062;2023-06-22T10:57:07;12.43;;;5.03;;
76610;SDS011;65503;48.534;9.062;2023-06-22T10:59:34;11.63;;;4.97;;
76610;SDS011;65503;48.534;9.062;2023-06-22T11:02:01;12.32;;;6.10;;
76610;SDS011;65503;48.534;9.062;2023-06-22T11:04:28;11.55;;;4.82;;
76610;SDS011;65503;48.534;9.062;2023-06-22T11:06:55;13.88;;;5.50;;
76610;SDS011;65503;48.534;9.062;2023-06-22T11:09:22;10.98;;;5.32;;
76610;SDS011;65503;48.534;9.062;2023-06-22T11:11:55;12.32;;;5.65;;
76610;SDS011;65503;48.534;9.062;2023-06-22T11:14:22;12.50;;;5.72;;
76610;SDS011;65503;48.534;9.062;2023-06-22T11:16:49;10.23;;;5.13;;
76610;SDS011;65503;48.534;9.062;2023-06-22T11:19:16;13.32;;;5.60;;
76610;SDS011;65503;48.534;9.062;2023-06-22T11:21:42;10.38;;;4.95;;
76610;SDS011;65503;48.534;9.062;2023-06-22T11:24:09;10.57;;;5.30;;
76610;SDS011;65503;48.534;9.062;2023-06-22T11:26:35;11.73;;;5.32;;
76610;SDS011;65503;48.534;9.062;2023-06-22T11:29:03;12.82;;;5.30;;
76610;SDS011;65503;48.534;9.062;2023-06-22T11:31:33;13.13;;;5.55;;
76610;SDS011;65503;48.534;9.062;2023-06-22T11:34:00;10.75;;;5.05;;
76610;SDS011;65503;48.534;9.062;2023-06-22T11:36:28;11.88;;;5.72;;
76610;SDS011;65503;48.534;9.062;2023-06-22T11:38:55;13.90;;;5.88;;
76610;SDS011;65503;48.534;9.062;2023-06-22T11:43:48;11.35;;;5.10;;
76610;SDS011;65503;48.534;9.062;2023-06-22T11:46:15;12.70;;;5.72;;
76610;SDS011;65503;48.534;9.062;2023-06-22T11:48:42;8.05;;;5.13;;
76610;SDS011;65503;48.534;9.062;2023-06-22T11:56:01;9.43;;;5.38;;
76610;SDS011;65503;48.534;9.062;2023-06-22T12:03:21;9.88;;;5.22;;
76610;SDS011;65503;48.534;9.062;2023-06-22T12:05:49;10.93;;;5.45;;
76610;SDS011;65503;48.534;9.062;2023-06-22T12:08:17;9.52;;;5.78;;
76610;SDS011;65503;48.534;9.062;2023-06-22T12:10:44;11.80;;;5.57;;
76610;SDS011;65503;48.534;9.062;2023-06-22T12:13:11;9.32;;;5.28;;
76610;SDS011;65503;48.534;9.062;2023-06-22T12:15:38;10.68;;;5.82;;
76610;SDS011;65503;48.534;9.062;2023-06-22T12:18:04;13.25;;;5.13;;
76610;SDS011;65503;48.534;9.062;2023-06-22T12:20:31;13.95;;;4.93;;
76610;SDS011;65503;48.534;9.062;2023-06-22T12:22:58;9.82;;;5.88;;
76610;SDS011;65503;48.534;9.062;2023-06-22T12:25:25;9.10;;;5.25;;
76610;SDS011;65503;48.534;9.062;2023-06-22T12:27:51;9.65;;;4.57;;
76610;SDS011;65503;48.534;9.062;2023-06-22T12:30:18;10.98;;;5.13;;
76610;SDS011;65503;48.534;9.062;2023-06-22T12:37:41;13.27;;;5.70;;
76610;SDS011;65503;48.534;9.062;2023-06-22T12:40:09;12.18;;;5.80;;
76610;SDS011;65503;48.534;9.062;2023-06-22T12:42:36;10.75;;;5.70;;
76610;SDS011;65503;48.534;9.062;2023-06-22T12:45:03;13.32;;;5.50;;
76610;SDS011;65503;48.534;9.062;2023-06-22T12:47:30;12.43;;;6.00;;
76610;SDS011;65503;48.534;9.062;2023-06-22T12:49:57;10.38;;;4.97;;
76610;SDS011;65503;48.534;9.062;2023-06-22T12:52:23;9.57;;;5.82;;
76610;SDS011;65503;48.534;9.062;2023-06-22T12:54:50;11.70;;;4.97;;
76610;SDS011;65503;48.534;9.062;2023-06-22T12:57:21;10.35;;;6.28;;
76610;SDS011;65503;48.534;9.062;2023-06-22T12:59:47;11.07;;;4.90;;
76610;SDS011;65503;48.534;9.062;2023-06-22T13:02:14;10.90;;;5.53;;
76610;SDS011;65503;48.534;9.062;2023-06-22T13:04:41;11.98;;;5.72;;
76610;SDS011;65503;48.534;9.062;2023-06-22T13:07:09;13.13;;;5.82;;
76610;SDS011;65503;48.534;9.062;2023-06-22T13:09:48;12.32;;;5.45;;
76610;SDS011;65503;48.534;9.062;2023-06-22T13:12:19;9.45;;;5.43;;
76610;SDS011;65503;48.534;9.062;2023-06-22T13:14:46;12.43;;;5.72;;
76610;SDS011;65503;48.534;9.062;2023-06-22T13:17:13;12.15;;;5.35;;
76610;SDS011;65503;48.534;9.062;2023-06-22T13:19:40;12.50;;;5.30;;
76610;SDS011;65503;48.534;9.062;2023-06-22T13:24:57;13.50;;;5.78;;
76610;SDS011;65503;48.534;9.062;2023-06-22T13:27:24;18.95;;;5.68;;
76610;SDS011;65503;48.534;9.062;2023-06-22T13:29:51;12.40;;;5.38;;
76610;SDS011;65503;48.534;9.062;2023-06-22T13:32:17;13.48;;;4.72;;
76610;SDS011;65503;48.534;9.062;2023-06-22T13:34:44;9.93;;;5.40;;
76610;SDS011;65503;48.534;9.062;2023-06-22T13:37:11;13.98;;;4.90;;
76610;SDS011;65503;48.534;9.062;2023-06-22T13:39:37;12.75;;;5.00;;
76610;SDS011;65503;48.534;9.062;2023-06-22T13:42:04;7.78;;;4.45;;
76610;SDS011;65503;48.534;9.062;2023-06-22T13:44:31;11.25;;;5.10;;
76610;SDS011;65503;48.534;9.062;2023-06-22T13:46:58;11.32;;;4.60;;
76610;SDS011;65503;48.534;9.062;2023-06-22T13:49:24;13.43;;;5.22;;
76610;SDS011;65503;48.534;9.062;2023-06-22T13:51:51;12.68;;;4.75;;
76610;SDS011;65503;48.534;9.062;2023-06-22T13:54:17;14.43;;;5.38;;
76610;SDS011;65503;48.534;9.062;2023-06-22T13:56:55;11.60;;;5.07;;
76610;SDS011;65503;48.534;9.062;2023-06-22T13:59:21;14.25;;;5.70;;
76610;SDS011;65503;48.534;9.062;2023-06-22T14:01:48;12.68;;;5.50;;
76610;SDS011;65503;48.534;9.062;2023-06-22T14:04:14;10.23;;;5.50;;
76610;SDS011;65503;48.534;9.062;2023-06-22T14:06:41;8.85;;;4.88;;
76610;SDS011;65503;48.534;9.062;2023-06-22T14:11:34;11.20;;;5.68;;
76610;SDS011;65503;48.534;9.062;2023-06-22T14:14:01;9.82;;;5.22;;
76610;SDS011;65503;48.534;9.062;2023-06-22T14:16:27;13.20;;;5.53;;
76610;SDS011;65503;48.534;9.062;2023-06-22T14:18:54;16.17;;;5.70;;
76610;SDS011;65503;48.534;9.062;2023-06-22T14:21:23;14.98;;;5.40;;
76610;SDS011;65503;48.534;9.062;2023-06-22T14:23:50;19.65;;;5.90;;
76610;SDS011;65503;48.534;9.062;2023-06-22T14:26:17;15.00;;;5.43;;
76610;SDS011;65503;48.534;9.062;2023-06-22T14:28:47;11.57;;;5.43;;
76610;SDS011;65503;48.534;9.062;2023-06-22T14:31:16;14.07;;;5.65;;
76610;SDS011;65503;48.534;9.062;2023-06-22T14:33:48;9.43;;;5.55;;
76610;SDS011;65503;48.534;9.062;2023-06-22T14:36:15;11.55;;;5.82;;
76610;SDS011;65503;48.534;9.062;2023-06-22T14:38:44;12.32;;;5.18;;
76610;SDS011;65503;48.534;9.062;2023-06-22T14:41:12;17.65;;;5.63;;
76610;SDS011;65503;48.534;9.062;2023-06-22T14:43:44;17.00;;;5.68;;
76610;SDS011;65503;48.534;9.062;2023-06-22T14:46:13;14.10;;;4.78;;
76610;SDS011;65503;48.534;9.062;2023-06-22T14:48:41;13.23;;;4.45;;
76610;SDS011;65503;48.534;9.062;2023-06-22T14:51:08;15.30;;;5.05;;
76610;SDS011;65503;48.534;9.062;2023-06-22T14:53:38;14.02;;;4.97;;
76610;SDS011;65503;48.534;9.062;2023-06-22T14:56:05;11.18;;;4.35;;
76610;SDS011;65503;48.534;9.062;2023-06-22T14:58:32;10.43;;;3.13;;
76610;SDS011;65503;48.534;9.062;2023-06-22T15:01:00;14.20;;;3.53;;
76610;SDS011;65503;48.534;9.062;2023-06-22T15:03:27;11.55;;;3.38;;
76610;SDS011;65503;48.534;9.062;2023-06-22T15:05:55;15.25;;;3.63;;
76610;SDS011;65503;48.534;9.062;2023-06-22T15:08:22;15.57;;;3.60;;
76610;SDS011;65503;48.534;9.062;2023-06-22T15:13:16;12.27;;;3.70;;
76610;SDS011;65503;48.534;9.062;2023-06-22T15:15:46;12.25;;;3.53;;
76610;SDS011;65503;48.534;9.062;2023-06-22T15:18:14;8.50;;;2.60;;
76610;SDS011;65503;48.534;9.062;2023-06-22T15:20:42;15.73;;;2.92;;
76610;SDS011;65503;48.534;9.062;2023-06-22T15:23:14;13.07;;;3.45;;
76610;SDS011;65503;48.534;9.062;2023-06-22T15:28:07;14.15;;;2.83;;
76610;SDS011;65503;48.534;9.062;2023-06-22T15:30:33;7.90;;;2.70;;